sensor_id;sensor_type;location;lat;lon;timestamp;pressure;altitude;pressure_sealevel;temperature;humidity
4012;BME280;2020;48.682;9.024;2023-08-31T00:01:37;95952.16;;;12.86;100.00
4012;BME280;2020;48.682;9.024;2023-08-31T00:04:03;95949.53;;;12.86;100.00
4012;BME280;2020;48.682;9.024;2023-08-31T00:06:29;95948.72;;;12.86;100.00
4012;BME280;2020;48.682;9.024;2023-08-31T00:08:54;95947.50;;;12.67;100.00
4012;BME280;2020;48.682;9.024;2023-08-31T00:11:19;95953.50;;;12.67;100.00
4012;BME280;2020;48.682;9.024;2023-08-31T00:13:45;95949.13;;;12.68;100.00
4012;BME280;2020;48.682;9.024;2023-08-31T00:16:10;95960.19;;;12.70;100.00
4012;BME280;2020;48.682;9.024;2023-08-31T00:18:37;95962.16;;;12.68;100.00
4012;BME280;2020;48.682;9.024;2023-08-31T00:21:02;95967.00;;;12.56;100.00
4012;BME280;2020;48.682;9.024;2023-08-31T00:23:28;95964.22;;;12.57;100.00
4012;BME280;2020;48.682;9.024;2023-08-31T00:25:54;95961.34;;;12.52;100.00
4012;BME280;2020;48.682;9.024;2023-08-31T00:28:19;95966.19;;;12.55;100.00
4012;BME280;2020;48.682;9.024;2023-08-31T00:30:45;95965.91;;;12.50;100.00
4012;BME280;2020;48.682;9.024;2023-08-31T00:33:11;95963.31;;;12.50;100.00
4012;BME280;2020;48.682;9.024;2023-08-31T00:35:37;95959.72;;;12.36;100.00
4012;BME280;2020;48.682;9.024;2023-08-31T00:38:02;95965.47;;;12.32;100.00
4012;BME280;2020;48.682;9.024;2023-08-31T00:40:30;95963.94;;;12.37;100.00
4012;BME280;2020;48.682;9.024;2023-08-31T00:42:57;95971.22;;;12.42;100.00
4012;BME280;2020;48.682;9.024;2023-08-31T00:45:23;95973.56;;;12.37;100.00
4012;BME280;2020;48.682;9.024;2023-08-31T00:47:49;95970.59;;;12.40;100.00
4012;BME280;2020;48.682;9.024;2023-08-31T00:50:15;95973.22;;;12.40;100.00
4012;BME280;2020;48.682;9.024;2023-08-31T00:52:43;95969.53;;;12.34;100.00
4012;BME280;2020;48.682;9.024;2023-08-31T00:55:12;95968.88;;;12.17;100.00
4012;BME280;2020;48.682;9.024;2023-08-31T00:57:38;95963.91;;;12.22;100.00
4012;BME280;2020;48.682;9.024;2023-08-31T01:00:04;95966.53;;;12.22;100.00
4012;BME280;2020;48.682;9.024;2023-08-31T01:02:59;95961.94;;;12.09;100.00
4012;BME280;2020;48.682;9.024;2023-08-31T01:05:46;95958.59;;;12.01;100.00
4012;BME280;2020;48.682;9.024;2023-08-31T01:08:29;95959.13;;;11.88;100.00
4012;BME280;2020;48.682;9.024;2023-08-31T01:11:05;95961.47;;;11.82;100.00
4012;BME280;2020;48.682;9.024;2023-08-31T01:13:34;95970.28;;;11.81;100.00
4012;BME280;2020;48.682;9.024;2023-08-31T01:16:03;95977.81;;;11.76;100.00
4012;BME280;2020;48.682;9.024;2023-08-31T01:18:31;95973.13;;;11.72;100.00
4012;BME280;2020;48.682;9.024;2023-08-31T01:21:11;95974.75;;;11.73;100.00
4012;BME280;2020;48.682;9.024;2023-08-31T01:23:57;95978.16;;;11.73;100.00
4012;BME280;2020;48.682;9.024;2023-08-31T01:26:24;95976.44;;;11.65;100.00
4012;BME280;2020;48.682;9.024;2023-08-31T01:28:51;95986.84;;;11.42;100.00
4012;BME280;2020;48.682;9.024;2023-08-31T01:31:17;95982.09;;;11.46;100.00
4012;BME280;2020;48.682;9.024;2023-08-31T01:33:42;95986.59;;;11.29;100.00
4012;BME280;2020;48.682;9.024;2023-08-31T01:36:19;95982.81;;;11.39;100.00
4012;BME280;2020;48.682;9.024;2023-08-31T01:38:50;95993.91;;;11.33;100.00
4012;BME280;2020;48.682;9.024;2023-08-31T01:41:19;95991.94;;;11.35;100.00
4012;BME280;2020;48.682;9.024;2023-08-31T01:43:47;95990.19;;;11.27;100.00
4012;BME280;2020;48.682;9.024;2023-08-31T01:46:13;95988.69;;;11.33;100.00
4012;BME280;2020;48.682;9.024;2023-08-31T01:48:39;95995.88;;;11.31;100.00
4012;BME280;2020;48.682;9.024;2023-08-31T01:51:06;96003.06;;;11.21;100.00
4012;BME280;2020;48.682;9.024;2023-08-31T01:53:31;95989.06;;;11.22;100.00
4012;BME280;2020;48.682;9.024;2023-08-31T01:55:56;95987.47;;;11.12;100.00
4012;BME280;2020;48.682;9.024;2023-08-31T01:58:22;95991.06;;;11.11;100.00
4012;BME280;2020;48.682;9.024;2023-08-31T02:00:48;95989.09;;;11.14;100.00
4012;BME280;2020;48.682;9.024;2023-08-31T02:03:13;95991.41;;;11.08;100.00
4012;BME280;2020;48.682;9.024;2023-08-31T02:05:38;95988.97;;;11.07;100.00
4012;BME280;2020;48.682;9.024;2023-08-31T02:08:03;95990.72;;;11.15;100.00
4012;BME280;2020;48.682;9.024;2023-08-31T02:10:29;95997.63;;;10.99;100.00
4012;BME280;2020;48.682;9.024;2023-08-31T02:12:54;95989.19;;;10.97;100.00
4012;BME280;2020;48.682;9.024;2023-08-31T02:15:20;95991.44;;;11.00;100.00
4012;BME280;2020;48.682;9.024;2023-08-31T02:17:45;95997.63;;;10.99;100.00
4012;BME280;2020;48.682;9.024;2023-08-31T02:20:11;95989.19;;;10.97;100.00
4012;BME280;2020;48.682;9.024;2023-08-31T02:22:36;95995.66;;;11.01;100.00
4012;BME280;2020;48.682;9.024;2023-08-31T02:25:01;95996.28;;;11.11;100.00
4012;BME280;2020;48.682;9.024;2023-08-31T02:27:27;95998.91;;;11.03;100.00
4012;BME280;2020;48.682;9.024;2023-08-31T02:29:53;96002.50;;;11.02;100.00
4012;BME280;2020;48.682;9.024;2023-08-31T02:32:18;96005.47;;;10.91;100.00
4012;BME280;2020;48.682;9.024;2023-08-31T02:34:44;96017.22;;;10.87;100.00
4012;BME280;2020;48.682;9.024;2023-08-31T02:37:09;96014.59;;;10.87;100.00
4012;BME280;2020;48.682;9.024;2023-08-31T02:39:35;96008.94;;;10.83;100.00
4012;BME280;2020;48.682;9.024;2023-08-31T02:42:00;96012.34;;;10.83;100.00
4012;BME280;2020;48.682;9.024;2023-08-31T02:44:26;96009.69;;;10.92;100.00
4012;BME280;2020;48.682;9.024;2023-08-31T02:46:51;96012.66;;;10.89;100.00
4012;BME280;2020;48.682;9.024;2023-08-31T02:49:16;96009.41;;;10.87;100.00
4012;BME280;2020;48.682;9.024;2023-08-31T02:51:41;96014.91;;;10.92;100.00
4012;BME280;2020;48.682;9.024;2023-08-31T02:54:07;96019.13;;;10.93;100.00
4012;BME280;2020;48.682;9.024;2023-08-31T02:56:32;96017.19;;;10.95;100.00
4012;BME280;2020;48.682;9.024;2023-08-31T02:58:57;96013.59;;;10.96;100.00
4012;BME280;2020;48.682;9.024;2023-08-31T03:01:22;96011.03;;;10.88;100.00
4012;BME280;2020;48.682;9.024;2023-08-31T03:03:49;96013.47;;;10.89;100.00
4012;BME280;2020;48.682;9.024;2023-08-31T03:06:14;96015.63;;;10.77;100.00
4012;BME280;2020;48.682;9.024;2023-08-31T03:08:40;96018.72;;;10.81;100.00
4012;BME280;2020;48.682;9.024;2023-08-31T03:11:05;96029.75;;;10.83;100.00
4012;BME280;2020;48.682;9.024;2023-08-31T03:13:31;96024.91;;;10.80;100.00
4012;BME280;2020;48.682;9.024;2023-08-31T03:15:57;96028.31;;;10.72;100.00
4012;BME280;2020;48.682;9.024;2023-08-31T03:18:22;96024.59;;;10.66;100.00
4012;BME280;2020;48.682;9.024;2023-08-31T03:20:48;96023.28;;;10.79;100.00
4012;BME280;2020;48.682;9.024;2023-08-31T03:23:13;96026.69;;;10.71;100.00
4012;BME280;2020;48.682;9.024;2023-08-31T03:25:38;96022.16;;;10.65;100.00
4012;BME280;2020;48.682;9.024;2023-08-31T03:28:04;96023.13;;;10.72;100.00
4012;BME280;2020;48.682;9.024;2023-08-31T03:30:29;96024.75;;;10.73;100.00
4012;BME280;2020;48.682;9.024;2023-08-31T03:32:54;96013.69;;;10.71;100.00
4012;BME280;2020;48.682;9.024;2023-08-31T03:35:20;96019.84;;;10.78;100.00
4012;BME280;2020;48.682;9.024;2023-08-31T03:37:49;96027.19;;;10.75;100.00
4012;BME280;2020;48.682;9.024;2023-08-31T03:40:14;96026.69;;;10.71;100.00
4012;BME280;2020;48.682;9.024;2023-08-31T03:42:39;96025.75;;;10.64;100.00
4012;BME280;2020;48.682;9.024;2023-08-31T03:45:05;96028.31;;;10.72;100.00
4012;BME280;2020;48.682;9.024;2023-08-31T03:47:31;96023.94;;;10.73;100.00
4012;BME280;2020;48.682;9.024;2023-08-31T03:49:59;96038.41;;;10.67;100.00
4012;BME280;2020;48.682;9.024;2023-08-31T03:52:24;96044.28;;;10.69;100.00
4012;BME280;2020;48.682;9.024;2023-08-31T03:54:51;96039.72;;;10.71;100.00
4012;BME280;2020;48.682;9.024;2023-08-31T03:57:16;96050.75;;;10.73;100.00
4012;BME280;2020;48.682;9.024;2023-08-31T03:59:41;96054.69;;;10.69;100.00
4012;BME280;2020;48.682;9.024;2023-08-31T04:02:07;96053.69;;;10.78;100.00
4012;BME280;2020;48.682;9.024;2023-08-31T04:04:32;96040.03;;;10.76;100.00
4012;BME280;2020;48.682;9.024;2023-08-31T04:06:59;96047.16;;;10.82;100.00
4012;BME280;2020;48.682;9.024;2023-08-31T04:09:24;96050.72;;;10.90;100.00
4012;BME280;2020;48.682;9.024;2023-08-31T04:11:49;96057.22;;;10.94;100.00
4012;BME280;2020;48.682;9.024;2023-08-31T04:14:15;96054.13;;;10.99;100.00
4012;BME280;2020;48.682;9.024;2023-08-31T04:16:40;96048.44;;;10.87;100.00
4012;BME280;2020;48.682;9.024;2023-08-31T04:19:05;96055.47;;;10.86;100.00
4012;BME280;2020;48.682;9.024;2023-08-31T04:21:31;96052.69;;;10.88;100.00
4012;BME280;2020;48.682;9.024;2023-08-31T04:23:56;96054.97;;;10.82;100.00
4012;BME280;2020;48.682;9.024;2023-08-31T04:26:21;96054.97;;;10.82;100.00
4012;BME280;2020;48.682;9.024;2023-08-31T04:28:46;96053.00;;;10.85;100.00
4012;BME280;2020;48.682;9.024;2023-08-31T04:31:12;96058.22;;;10.85;100.00
4012;BME280;2020;48.682;9.024;2023-08-31T04:33:38;96062.47;;;10.77;100.00
4012;BME280;2020;48.682;9.024;2023-08-31T04:36:04;96052.69;;;10.79;100.00
4012;BME280;2020;48.682;9.024;2023-08-31T04:38:39;96068.97;;;10.81;100.00
4012;BME280;2020;48.682;9.024;2023-08-31T04:41:04;96066.06;;;10.76;100.00
4012;BME280;2020;48.682;9.024;2023-08-31T04:43:30;96074.03;;;10.75;100.00
4012;BME280;2020;48.682;9.024;2023-08-31T04:45:55;96071.25;;;10.76;100.00
4012;BME280;2020;48.682;9.024;2023-08-31T04:48:20;96080.53;;;10.79;100.00
4012;BME280;2020;48.682;9.024;2023-08-31T04:50:46;96079.75;;;10.62;100.00
4012;BME280;2020;48.682;9.024;2023-08-31T04:53:12;96085.13;;;10.68;100.00
4012;BME280;2020;48.682;9.024;2023-08-31T04:55:37;96084.94;;;10.62;100.00
4012;BME280;2020;48.682;9.024;2023-08-31T04:58:03;96085.94;;;10.61;100.00
4012;BME280;2020;48.682;9.024;2023-08-31T05:00:28;96083.66;;;10.58;100.00
4012;BME280;2020;48.682;9.024;2023-08-31T05:02:53;96092.44;;;10.65;100.00
4012;BME280;2020;48.682;9.024;2023-08-31T05:05:19;96091.13;;;10.69;100.00
4012;BME280;2020;48.682;9.024;2023-08-31T05:07:44;96103.16;;;10.70;100.00
4012;BME280;2020;48.682;9.024;2023-08-31T05:10:09;96096.31;;;10.77;100.00
4012;BME280;2020;48.682;9.024;2023-08-31T05:12:35;96102.81;;;10.81;100.00
4012;BME280;2020;48.682;9.024;2023-08-31T05:15:00;96103.31;;;10.85;100.00
4012;BME280;2020;48.682;9.024;2023-08-31T05:17:25;96108.31;;;10.87;100.00
4012;BME280;2020;48.682;9.024;2023-08-31T05:19:51;96105.72;;;10.87;100.00
4012;BME280;2020;48.682;9.024;2023-08-31T05:22:16;96109.63;;;10.91;100.00
4012;BME280;2020;48.682;9.024;2023-08-31T05:24:42;96109.94;;;10.88;100.00
4012;BME280;2020;48.682;9.024;2023-08-31T05:27:07;96106.56;;;10.87;100.00
4012;BME280;2020;48.682;9.024;2023-08-31T05:29:33;96106.88;;;10.92;100.00
4012;BME280;2020;48.682;9.024;2023-08-31T05:31:58;96120.03;;;10.91;100.00
4012;BME280;2020;48.682;9.024;2023-08-31T05:34:24;96120.19;;;10.97;100.00
4012;BME280;2020;48.682;9.024;2023-08-31T05:36:50;96123.75;;;11.05;100.00
4012;BME280;2020;48.682;9.024;2023-08-31T05:39:15;96120.50;;;11.11;100.00
4012;BME280;2020;48.682;9.024;2023-08-31T05:41:42;96128.13;;;11.12;100.00
4012;BME280;2020;48.682;9.024;2023-08-31T05:44:09;96126.03;;;11.08;100.00
4012;BME280;2020;48.682;9.024;2023-08-31T05:46:34;96135.97;;;11.04;100.00
4012;BME280;2020;48.682;9.024;2023-08-31T05:48:59;96132.72;;;11.02;100.00
4012;BME280;2020;48.682;9.024;2023-08-31T05:51:25;96135.28;;;11.10;100.00
4012;BME280;2020;48.682;9.024;2023-08-31T05:53:50;96141.47;;;11.18;100.00
4012;BME280;2020;48.682;9.024;2023-08-31T05:56:15;96140.78;;;11.24;100.00
4012;BME280;2020;48.682;9.024;2023-08-31T05:58:41;96141.09;;;11.37;100.00
4012;BME280;2020;48.682;9.024;2023-08-31T06:01:06;96147.03;;;11.54;100.00
4012;BME280;2020;48.682;9.024;2023-08-31T06:03:32;96145.91;;;11.57;100.00
4012;BME280;2020;48.682;9.024;2023-08-31T06:05:58;96147.75;;;11.80;100.00
4012;BME280;2020;48.682;9.024;2023-08-31T06:08:24;96142.16;;;11.91;100.00
4012;BME280;2020;48.682;9.024;2023-08-31T06:10:50;96151.38;;;12.10;100.00
4012;BME280;2020;48.682;9.024;2023-08-31T06:13:15;96147.19;;;12.24;100.00
4012;BME280;2020;48.682;9.024;2023-08-31T06:15:40;96149.16;;;12.22;100.00
4012;BME280;2020;48.682;9.024;2023-08-31T06:18:06;96154.84;;;12.49;100.00
4012;BME280;2020;48.682;9.024;2023-08-31T06:20:32;96146.28;;;12.64;100.00
4012;BME280;2020;48.682;9.024;2023-08-31T06:22:58;96157.22;;;12.82;100.00
4012;BME280;2020;48.682;9.024;2023-08-31T06:25:23;96160.88;;;12.73;100.00
4012;BME280;2020;48.682;9.024;2023-08-31T06:27:49;96159.25;;;12.72;100.00
4012;BME280;2020;48.682;9.024;2023-08-31T06:30:14;96158.69;;;12.62;100.00
4012;BME280;2020;48.682;9.024;2023-08-31T06:32:47;96162.78;;;12.79;100.00
4012;BME280;2020;48.682;9.024;2023-08-31T06:35:13;96161.44;;;12.83;100.00
4012;BME280;2020;48.682;9.024;2023-08-31T06:37:40;96155.34;;;13.06;100.00
4012;BME280;2020;48.682;9.024;2023-08-31T06:40:06;96165.31;;;13.02;100.00
4012;BME280;2020;48.682;9.024;2023-08-31T06:42:33;96163.81;;;13.08;100.00
4012;BME280;2020;48.682;9.024;2023-08-31T06:44:58;96172.84;;;13.21;100.00
4012;BME280;2020;48.682;9.024;2023-08-31T06:47:24;96178.44;;;13.18;100.00
4012;BME280;2020;48.682;9.024;2023-08-31T06:49:49;96174.38;;;13.30;100.00
4012;BME280;2020;48.682;9.024;2023-08-31T06:52:14;96185.84;;;13.59;100.00
4012;BME280;2020;48.682;9.024;2023-08-31T06:54:41;96188.84;;;13.71;100.00
4012;BME280;2020;48.682;9.024;2023-08-31T06:57:06;96187.09;;;13.93;100.00
4012;BME280;2020;48.682;9.024;2023-08-31T06:59:31;96186.94;;;14.16;97.23
4012;BME280;2020;48.682;9.024;2023-08-31T07:01:56;96180.31;;;14.36;96.61
4012;BME280;2020;48.682;9.024;2023-08-31T07:04:22;96179.97;;;14.45;94.34
4012;BME280;2020;48.682;9.024;2023-08-31T07:06:47;96172.81;;;14.54;95.16
4012;BME280;2020;48.682;9.024;2023-08-31T07:09:12;96188.47;;;14.69;94.81
4012;BME280;2020;48.682;9.024;2023-08-31T07:11:38;96193.88;;;14.68;93.92
4012;BME280;2020;48.682;9.024;2023-08-31T07:14:03;96186.66;;;14.91;97.28
4012;BME280;2020;48.682;9.024;2023-08-31T07:16:28;96193.19;;;15.02;94.27
4012;BME280;2020;48.682;9.024;2023-08-31T07:18:53;96191.84;;;15.13;95.46
4012;BME280;2020;48.682;9.024;2023-08-31T07:21:19;96191.75;;;15.00;86.79
4012;BME280;2020;48.682;9.024;2023-08-31T07:23:44;96203.22;;;14.92;89.15
4012;BME280;2020;48.682;9.024;2023-08-31T07:26:09;96202.72;;;15.10;87.48
4012;BME280;2020;48.682;9.024;2023-08-31T07:28:35;96205.47;;;15.02;84.77
4012;BME280;2020;48.682;9.024;2023-08-31T07:31:09;96209.09;;;15.01;89.94
4012;BME280;2020;48.682;9.024;2023-08-31T07:33:34;96204.03;;;14.71;85.62
4012;BME280;2020;48.682;9.024;2023-08-31T07:36:00;96208.19;;;14.87;90.86
4012;BME280;2020;48.682;9.024;2023-08-31T07:38:27;96209.25;;;14.71;88.91
4012;BME280;2020;48.682;9.024;2023-08-31T07:40:53;96210.69;;;14.95;90.05
4012;BME280;2020;48.682;9.024;2023-08-31T07:43:18;96207.09;;;15.03;87.71
4012;BME280;2020;48.682;9.024;2023-08-31T07:45:44;96214.56;;;15.28;91.30
4012;BME280;2020;48.682;9.024;2023-08-31T07:48:09;96213.81;;;15.34;78.10
4012;BME280;2020;48.682;9.024;2023-08-31T07:50:34;96210.44;;;15.47;82.01
4012;BME280;2020;48.682;9.024;2023-08-31T07:53:00;96211.19;;;15.69;84.40
4012;BME280;2020;48.682;9.024;2023-08-31T07:55:25;96218.81;;;15.64;80.83
4012;BME280;2020;48.682;9.024;2023-08-31T07:57:50;96217.19;;;15.63;79.99
4012;BME280;2020;48.682;9.024;2023-08-31T08:00:16;96218.03;;;15.70;84.50
4012;BME280;2020;48.682;9.024;2023-08-31T08:02:41;96213.22;;;15.39;76.36
4012;BME280;2020;48.682;9.024;2023-08-31T08:05:07;96210.97;;;15.71;85.64
4012;BME280;2020;48.682;9.024;2023-08-31T08:07:32;96206.94;;;15.68;73.28
4012;BME280;2020;48.682;9.024;2023-08-31T08:09:57;96207.56;;;15.70;70.53
4012;BME280;2020;48.682;9.024;2023-08-31T08:12:24;96208.97;;;16.15;84.46
4012;BME280;2020;48.682;9.024;2023-08-31T08:14:50;96208.97;;;16.08;74.08
4012;BME280;2020;48.682;9.024;2023-08-31T08:17:15;96219.13;;;16.31;76.06
4012;BME280;2020;48.682;9.024;2023-08-31T08:19:41;96224.00;;;16.41;68.71
4012;BME280;2020;48.682;9.024;2023-08-31T08:22:06;96235.34;;;16.55;67.35
4012;BME280;2020;48.682;9.024;2023-08-31T08:24:32;96231.28;;;16.46;65.53
4012;BME280;2020;48.682;9.024;2023-08-31T08:26:57;96230.06;;;16.42;66.35
4012;BME280;2020;48.682;9.024;2023-08-31T08:29:22;96230.88;;;16.49;66.67
4012;BME280;2020;48.682;9.024;2023-08-31T08:31:47;96230.38;;;16.12;63.21
4012;BME280;2020;48.682;9.024;2023-08-31T08:34:13;96231.19;;;16.19;63.57
4012;BME280;2020;48.682;9.024;2023-08-31T08:36:38;96225.63;;;16.42;63.77
4012;BME280;2020;48.682;9.024;2023-08-31T08:39:03;96236.13;;;16.49;64.12
4012;BME280;2020;48.682;9.024;2023-08-31T08:41:29;96228.53;;;16.81;67.50
4012;BME280;2020;48.682;9.024;2023-08-31T08:43:56;96242.69;;;16.93;68.21
4012;BME280;2020;48.682;9.024;2023-08-31T08:46:26;96241.44;;;16.62;64.50
4012;BME280;2020;48.682;9.024;2023-08-31T08:48:53;96244.16;;;16.27;63.13
4012;BME280;2020;48.682;9.024;2023-08-31T08:51:20;96248.47;;;15.93;61.13
4012;BME280;2020;48.682;9.024;2023-08-31T08:53:45;96241.59;;;15.92;64.99
4012;BME280;2020;48.682;9.024;2023-08-31T08:56:11;96245.31;;;16.11;64.55
4012;BME280;2020;48.682;9.024;2023-08-31T08:58:37;96242.03;;;16.02;59.62
4012;BME280;2020;48.682;9.024;2023-08-31T09:01:04;96244.16;;;16.20;61.59
4012;BME280;2020;48.682;9.024;2023-08-31T09:03:32;96249.19;;;16.22;63.39
4012;BME280;2020;48.682;9.024;2023-08-31T09:05:59;96247.53;;;16.70;62.83
4012;BME280;2020;48.682;9.024;2023-08-31T09:08:27;96242.75;;;16.31;62.23
4012;BME280;2020;48.682;9.024;2023-08-31T09:10:55;96261.09;;;16.18;63.74
4012;BME280;2020;48.682;9.024;2023-08-31T09:13:20;96258.34;;;16.40;61.25
4012;BME280;2020;48.682;9.024;2023-08-31T09:15:48;96267.13;;;16.74;62.75
4012;BME280;2020;48.682;9.024;2023-08-31T09:18:22;96261.34;;;16.99;60.36
4012;BME280;2020;48.682;9.024;2023-08-31T09:20:48;96256.88;;;17.19;60.36
4012;BME280;2020;48.682;9.024;2023-08-31T09:23:15;96264.53;;;17.68;68.01
4012;BME280;2020;48.682;9.024;2023-08-31T09:25:44;96262.09;;;17.73;57.57
4012;BME280;2020;48.682;9.024;2023-08-31T09:28:12;96272.19;;;18.03;60.31
4012;BME280;2020;48.682;9.024;2023-08-31T09:30:38;96263.28;;;17.77;51.04
4012;BME280;2020;48.682;9.024;2023-08-31T09:33:09;96258.47;;;17.67;57.18
4012;BME280;2020;48.682;9.024;2023-08-31T09:35:47;96263.53;;;17.22;52.07
4012;BME280;2020;48.682;9.024;2023-08-31T09:38:14;96259.28;;;16.87;52.71
4012;BME280;2020;48.682;9.024;2023-08-31T09:40:39;96260.94;;;17.15;55.54
4012;BME280;2020;48.682;9.024;2023-08-31T09:43:04;96265.38;;;17.48;63.19
4012;BME280;2020;48.682;9.024;2023-08-31T09:45:32;96270.63;;;17.35;56.71
4012;BME280;2020;48.682;9.024;2023-08-31T09:47:59;96274.22;;;16.87;52.28
4012;BME280;2020;48.682;9.024;2023-08-31T09:50:30;96275.41;;;16.71;57.13
4012;BME280;2020;48.682;9.024;2023-08-31T09:53:00;96267.69;;;16.56;54.39
4012;BME280;2020;48.682;9.024;2023-08-31T09:55:27;96276.25;;;16.78;57.55
4012;BME280;2020;48.682;9.024;2023-08-31T09:57:56;96270.25;;;17.31;56.03
4012;BME280;2020;48.682;9.024;2023-08-31T10:00:22;96273.88;;;17.23;53.96
4012;BME280;2020;48.682;9.024;2023-08-31T10:02:48;96274.25;;;16.93;53.23
4012;BME280;2020;48.682;9.024;2023-08-31T10:05:14;96273.47;;;17.00;56.49
4012;BME280;2020;48.682;9.024;2023-08-31T10:07:40;96272.16;;;16.75;51.40
4012;BME280;2020;48.682;9.024;2023-08-31T10:10:07;96279.03;;;16.63;54.57
4012;BME280;2020;48.682;9.024;2023-08-31T10:12:33;96286.31;;;16.67;55.25
4012;BME280;2020;48.682;9.024;2023-08-31T10:15:00;96279.03;;;16.63;54.16
4012;BME280;2020;48.682;9.024;2023-08-31T10:17:26;96285.44;;;16.47;55.40
4012;BME280;2020;48.682;9.024;2023-08-31T10:19:52;96276.59;;;16.61;57.00
4012;BME280;2020;48.682;9.024;2023-08-31T10:22:18;96283.09;;;16.65;60.35
4012;BME280;2020;48.682;9.024;2023-08-31T10:25:06;96286.09;;;16.69;56.94
4012;BME280;2020;48.682;9.024;2023-08-31T10:27:44;96287.13;;;16.61;53.87
4012;BME280;2020;48.682;9.024;2023-08-31T10:33:01;96286.75;;;16.78;56.02
4012;BME280;2020;48.682;9.024;2023-08-31T10:35:40;96289.00;;;16.94;56.11
4012;BME280;2020;48.682;9.024;2023-08-31T10:38:29;96272.69;;;17.26;52.41
4012;BME280;2020;48.682;9.024;2023-08-31T10:49:12;96278.66;;;18.07;54.19
4012;BME280;2020;48.682;9.024;2023-08-31T10:51:44;96291.63;;;18.02;52.59
4012;BME280;2020;48.682;9.024;2023-08-31T10:54:19;96285.56;;;17.75;56.49
4012;BME280;2020;48.682;9.024;2023-08-31T10:59:22;96274.66;;;17.58;55.33
4012;BME280;2020;48.682;9.024;2023-08-31T11:04:16;96286.56;;;17.80;57.12
4012;BME280;2020;48.682;9.024;2023-08-31T11:06:41;96266.88;;;18.17;55.53
4012;BME280;2020;48.682;9.024;2023-08-31T11:09:18;96268.81;;;18.35;52.35
4012;BME280;2020;48.682;9.024;2023-08-31T11:11:43;96264.22;;;18.62;52.10
4012;BME280;2020;48.682;9.024;2023-08-31T11:14:08;96267.13;;;18.86;55.30
4012;BME280;2020;48.682;9.024;2023-08-31T11:16:34;96266.78;;;18.76;50.52
4012;BME280;2020;48.682;9.024;2023-08-31T11:19:02;96271.09;;;18.63;54.20
4012;BME280;2020;48.682;9.024;2023-08-31T11:21:29;96270.81;;;18.39;50.89
4012;BME280;2020;48.682;9.024;2023-08-31T11:23:56;96277.94;;;18.32;54.43
4012;BME280;2020;48.682;9.024;2023-08-31T11:26:24;96272.13;;;18.17;52.21
4012;BME280;2020;48.682;9.024;2023-08-31T11:28:49;96268.53;;;18.04;50.10
4012;BME280;2020;48.682;9.024;2023-08-31T11:31:26;96269.50;;;18.17;53.90
4012;BME280;2020;48.682;9.024;2023-08-31T11:33:51;96264.72;;;18.39;52.87
4012;BME280;2020;48.682;9.024;2023-08-31T11:36:17;96260.72;;;18.36;52.83
4012;BME280;2020;48.682;9.024;2023-08-31T11:38:43;96261.00;;;18.60;55.48
4012;BME280;2020;48.682;9.024;2023-08-31T11:41:09;96268.41;;;19.09;50.47
4012;BME280;2020;48.682;9.024;2023-08-31T11:43:34;96256.31;;;18.94;49.30
4012;BME280;2020;48.682;9.024;2023-08-31T11:46:00;96260.34;;;19.04;50.26
4012;BME280;2020;48.682;9.024;2023-08-31T11:48:26;96272.56;;;18.91;48.25
4012;BME280;2020;48.682;9.024;2023-08-31T11:50:51;96254.13;;;18.52;50.83
4012;BME280;2020;48.682;9.024;2023-08-31T11:53:18;96266.75;;;18.44;50.04
4012;BME280;2020;48.682;9.024;2023-08-31T11:55:50;96262.19;;;18.64;48.94
4012;BME280;2020;48.682;9.024;2023-08-31T11:58:16;96260.41;;;18.90;53.48
4012;BME280;2020;48.682;9.024;2023-08-31T12:00:43;96253.44;;;19.03;48.13
4012;BME280;2020;48.682;9.024;2023-08-31T12:03:08;96249.59;;;19.31;48.20
4012;BME280;2020;48.682;9.024;2023-08-31T12:05:47;96250.97;;;19.58;50.64
4012;BME280;2020;48.682;9.024;2023-08-31T12:08:16;96244.84;;;19.14;49.79
4012;BME280;2020;48.682;9.024;2023-08-31T12:10:42;96245.97;;;18.99;48.62
4012;BME280;2020;48.682;9.024;2023-08-31T12:13:08;96253.41;;;19.35;48.52
4012;BME280;2020;48.682;9.024;2023-08-31T12:15:33;96256.47;;;19.32;49.57
4012;BME280;2020;48.682;9.024;2023-08-31T12:18:06;96252.56;;;19.60;52.99
4012;BME280;2020;48.682;9.024;2023-08-31T12:20:32;96262.81;;;18.98;47.94
4012;BME280;2020;48.682;9.024;2023-08-31T12:22:57;96250.69;;;19.16;50.86
4012;BME280;2020;48.682;9.024;2023-08-31T12:25:23;96239.31;;;18.90;51.92
4012;BME280;2020;48.682;9.024;2023-08-31T12:27:48;96245.00;;;19.44;49.29
4012;BME280;2020;48.682;9.024;2023-08-31T12:30:15;96240.22;;;19.35;51.69
4012;BME280;2020;48.682;9.024;2023-08-31T12:32:40;96237.63;;;19.53;48.20
4012;BME280;2020;48.682;9.024;2023-08-31T12:35:05;96233.38;;;20.08;50.88
4012;BME280;2020;48.682;9.024;2023-08-31T12:37:31;96240.41;;;19.77;50.93
4012;BME280;2020;48.682;9.024;2023-08-31T12:39:57;96230.72;;;19.52;47.43
4012;BME280;2020;48.682;9.024;2023-08-31T12:42:23;96232.78;;;19.50;48.70
4012;BME280;2020;48.682;9.024;2023-08-31T12:44:48;96233.34;;;19.34;50.20
4012;BME280;2020;48.682;9.024;2023-08-31T12:47:13;96233.63;;;18.61;48.52
4012;BME280;2020;48.682;9.024;2023-08-31T12:49:39;96240.00;;;19.11;52.20
4012;BME280;2020;48.682;9.024;2023-08-31T12:52:05;96232.09;;;18.79;48.84
4012;BME280;2020;48.682;9.024;2023-08-31T12:54:30;96246.03;;;18.86;50.57
4012;BME280;2020;48.682;9.024;2023-08-31T12:56:55;96247.47;;;19.14;51.83
4012;BME280;2020;48.682;9.024;2023-08-31T12:59:21;96253.00;;;19.06;48.65
4012;BME280;2020;48.682;9.024;2023-08-31T13:01:46;96250.75;;;18.77;49.54
4012;BME280;2020;48.682;9.024;2023-08-31T13:04:11;96248.41;;;18.62;51.58
4012;BME280;2020;48.682;9.024;2023-08-31T13:06:37;96249.75;;;18.39;52.73
4012;BME280;2020;48.682;9.024;2023-08-31T13:09:02;96263.34;;;18.36;53.69
4012;BME280;2020;48.682;9.024;2023-08-31T13:11:28;96257.84;;;18.38;51.08
4012;BME280;2020;48.682;9.024;2023-08-31T13:13:54;96252.56;;;18.45;52.93
4012;BME280;2020;48.682;9.024;2023-08-31T13:16:20;96245.84;;;18.81;52.27
4012;BME280;2020;48.682;9.024;2023-08-31T13:18:49;96243.66;;;19.10;50.84
4012;BME280;2020;48.682;9.024;2023-08-31T13:21:14;96247.44;;;19.46;49.72
4012;BME280;2020;48.682;9.024;2023-08-31T13:23:40;96243.78;;;19.84;48.31
4012;BME280;2020;48.682;9.024;2023-08-31T13:26:08;96249.06;;;19.84;48.91
4012;BME280;2020;48.682;9.024;2023-08-31T13:28:33;96231.19;;;20.05;48.21